createdAt,value
2022-10-25T00:00:46.679Z,12.97
2022-10-25T00:03:14.746Z,10.80
2022-10-25T00:05:43.278Z,20.60
2022-10-25T00:08:12.773Z,14.57
2022-10-25T00:10:40.972Z,16.40
2022-10-25T00:13:09.092Z,11.50
2022-10-25T00:15:37.147Z,14.60
2022-10-25T00:18:05.759Z,40.43
2022-10-25T00:20:33.827Z,15.43
2022-10-25T00:23:01.921Z,15.13
2022-10-25T00:25:31.630Z,14.20
2022-10-25T00:27:59.744Z,21.40
2022-10-25T00:30:27.823Z,12.63
2022-10-25T00:32:55.889Z,14.03
2022-10-25T00:35:24.361Z,10.77
2022-10-25T00:37:53.066Z,13.70
2022-10-25T00:40:21.145Z,11.23
2022-10-25T00:42:50.626Z,12.10
2022-10-25T00:45:24.316Z,12.50
2022-10-25T00:47:57.743Z,16.43
2022-10-25T00:50:41.278Z,12.67
2022-10-25T00:53:13.446Z,10.10
2022-10-25T00:55:45.726Z,16.30
2022-10-25T00:58:19.335Z,9.13
2022-10-25T01:00:47.738Z,12.23
2022-10-25T01:03:17.746Z,17.57
2022-10-25T01:05:47.068Z,12.17
2022-10-25T01:08:16.553Z,10.17
2022-10-25T01:10:45.017Z,10.67
2022-10-25T01:13:13.232Z,10.20
2022-10-25T01:16:01.906Z,10.83
2022-10-25T01:18:43.556Z,12.40
2022-10-25T01:21:37.276Z,11.57
2022-10-25T01:24:28.171Z,11.17
2022-10-25T01:27:31.348Z,10.93
2022-10-25T01:30:17.128Z,13.37
2022-10-25T01:32:58.316Z,12.20
2022-10-25T01:35:30.937Z,15.13
2022-10-25T01:38:21.637Z,14.67
2022-10-25T01:40:58.409Z,15.77
2022-10-25T01:43:35.211Z,16.17
2022-10-25T01:46:13.713Z,12.50
2022-10-25T01:48:47.394Z,11.30
2022-10-25T01:51:18.048Z,13.40
2022-10-25T01:53:50.702Z,11.43
2022-10-25T01:56:25.792Z,11.83
2022-10-25T01:59:21.800Z,13.87
2022-10-25T02:02:02.488Z,16.20
2022-10-25T02:04:41.665Z,12.53
2022-10-25T02:07:14.499Z,19.23
2022-10-25T02:09:50.191Z,13.37
2022-10-25T02:12:26.264Z,15.97
2022-10-25T02:15:03.977Z,24.87
2022-10-25T02:17:35.476Z,22.93
2022-10-25T02:20:08.871Z,19.43
2022-10-25T02:22:40.365Z,23.57
2022-10-25T02:25:10.755Z,18.30
2022-10-25T02:27:41.248Z,21.57
2022-10-25T02:30:10.420Z,20.13
2022-10-25T02:32:38.695Z,15.70
2022-10-25T02:35:14.450Z,14.77
2022-10-25T02:37:43.026Z,16.93
2022-10-25T02:40:12.076Z,15.10
2022-10-25T02:42:40.274Z,12.67
2022-10-25T02:45:09.499Z,11.97
2022-10-25T02:47:37.820Z,18.53
2022-10-25T02:50:07.722Z,13.90
2022-10-25T02:52:35.913Z,12.20
2022-10-25T02:55:04.050Z,15.50
2022-10-25T02:57:34.805Z,18.90
2022-10-25T03:00:03.110Z,16.77
2022-10-25T03:02:31.297Z,19.13
2022-10-25T03:04:59.557Z,25.40
2022-10-25T03:07:29.101Z,17.83
2022-10-25T03:09:57.348Z,18.83
2022-10-25T03:12:25.688Z,20.57
2022-10-25T03:14:53.780Z,20.57
2022-10-25T03:17:22.239Z,19.47
2022-10-25T03:19:50.448Z,20.10
2022-10-25T03:22:18.505Z,21.03
2022-10-25T03:24:48.255Z,18.03
2022-10-25T03:27:17.942Z,26.30
2022-10-25T03:29:46.091Z,21.23
2022-10-25T03:32:14.295Z,21.40
2022-10-25T03:34:42.352Z,16.80
2022-10-25T03:37:10.500Z,23.87
2022-10-25T03:39:38.673Z,22.50
2022-10-25T03:42:08.218Z,23.83
2022-10-25T03:44:36.310Z,23.23
2022-10-25T03:47:04.657Z,25.77
2022-10-25T03:49:32.775Z,23.00
2022-10-25T03:52:02.823Z,25.50
2022-10-25T03:54:33.065Z,29.40
2022-10-25T03:57:01.236Z,27.30
2022-10-25T03:59:31.016Z,36.17
2022-10-25T04:01:59.149Z,78.77
2022-10-25T04:04:27.321Z,62.40
2022-10-25T04:06:55.462Z,42.80
2022-10-25T04:09:24.661Z,26.33
2022-10-25T04:11:52.720Z,30.83
2022-10-25T04:14:20.822Z,33.30
2022-10-25T04:16:50.457Z,37.47
2022-10-25T04:19:18.755Z,39.30
2022-10-25T04:21:46.873Z,28.43
2022-10-25T04:24:15.050Z,32.40
2022-10-25T04:26:43.152Z,28.97
2022-10-25T04:29:13.152Z,34.37
2022-10-25T04:31:41.238Z,35.50
2022-10-25T04:34:10.750Z,31.90
2022-10-25T04:36:39.979Z,28.00
2022-10-25T04:39:08.030Z,33.27
2022-10-25T04:41:36.329Z,29.27
2022-10-25T04:44:04.496Z,31.00
2022-10-25T04:46:33.728Z,40.47
2022-10-25T04:49:01.855Z,32.40
2022-10-25T04:51:31.389Z,45.17
2022-10-25T04:53:59.694Z,41.50
2022-10-25T04:56:30.136Z,31.27
2022-10-25T04:58:59.753Z,31.50
2022-10-25T05:01:28.492Z,40.77
2022-10-25T05:03:56.667Z,38.83
2022-10-25T05:06:27.730Z,33.13
2022-10-25T05:08:57.177Z,46.50
2022-10-25T05:11:26.658Z,49.90
2022-10-25T05:13:54.808Z,53.07
2022-10-25T05:16:25.876Z,61.27
2022-10-25T05:18:55.959Z,63.07
2022-10-25T05:24:02.596Z,72.10
2022-10-25T05:26:32.359Z,80.67
2022-10-25T05:29:00.995Z,66.80
2022-10-25T05:31:30.782Z,66.67
2022-10-25T05:34:01.064Z,69.80
2022-10-25T05:36:29.766Z,75.40
2022-10-25T05:39:01.873Z,71.77
2022-10-25T05:41:33.180Z,62.97
2022-10-25T05:44:04.753Z,57.07
2022-10-25T05:46:33.541Z,39.17
2022-10-25T05:49:02.040Z,30.20
2022-10-25T05:51:36.317Z,39.70
2022-10-25T05:54:08.238Z,30.27
2022-10-25T05:56:36.858Z,46.63
2022-10-25T05:59:08.841Z,33.90
2022-10-25T06:01:38.469Z,41.47
2022-10-25T06:04:07.276Z,27.80
2022-10-25T06:06:36.258Z,27.03
2022-10-25T06:09:06.774Z,26.47
2022-10-25T06:11:35.268Z,23.93
2022-10-25T06:14:03.940Z,20.43
2022-10-25T06:16:32.544Z,22.60
2022-10-25T06:19:00.668Z,20.50
2022-10-25T06:21:30.576Z,22.53
2022-10-25T06:24:00.284Z,21.90
2022-10-25T06:26:31.350Z,21.67
2022-10-25T06:29:01.653Z,31.47
2022-10-25T06:31:30.685Z,16.97
2022-10-25T06:34:00.872Z,23.23
2022-10-25T06:36:30.588Z,20.90
2022-10-25T06:39:05.155Z,15.63
2022-10-25T06:41:37.957Z,17.07
2022-10-25T06:44:07.582Z,20.63
2022-10-25T06:47:11.508Z,13.63
2022-10-25T06:49:26.271Z,14.00
2022-10-25T06:51:54.372Z,13.13
2022-10-25T06:54:22.564Z,19.73
2022-10-25T06:56:52.094Z,12.50
2022-10-25T06:59:20.687Z,13.53
2022-10-25T07:01:50.197Z,14.70
2022-10-25T07:04:18.458Z,12.00
2022-10-25T07:06:49.969Z,13.70
2022-10-25T07:09:20.937Z,14.00
2022-10-25T07:11:49.002Z,17.93
2022-10-25T07:14:18.747Z,14.43
2022-10-25T07:16:46.928Z,16.90
2022-10-25T07:19:15.018Z,18.83
2022-10-25T07:21:43.114Z,11.70
2022-10-25T07:24:11.929Z,11.40
2022-10-25T07:26:40.462Z,11.67
2022-10-25T07:29:08.825Z,10.23
2022-10-25T07:31:41.527Z,10.20
2022-10-25T07:34:12.013Z,13.50
2022-10-25T07:36:40.345Z,11.40
2022-10-25T07:39:08.687Z,13.43
2022-10-25T07:41:36.991Z,16.50
2022-10-25T07:44:05.280Z,14.03
2022-10-25T07:46:33.354Z,11.93
2022-10-25T07:49:03.035Z,11.03
2022-10-25T07:51:31.303Z,10.43
2022-10-25T07:53:59.494Z,29.70
2022-10-25T07:56:27.640Z,13.93
2022-10-25T07:58:55.668Z,17.33
2022-10-25T08:01:26.174Z,15.00
2022-10-25T08:03:55.510Z,11.77
2022-10-25T08:06:26.355Z,10.67
2022-10-25T08:08:55.066Z,15.70
2022-10-25T08:11:23.222Z,9.83
2022-10-25T08:13:52.015Z,10.60
2022-10-25T08:16:20.142Z,18.90
2022-10-25T08:18:48.384Z,9.80
2022-10-25T08:21:16.575Z,12.87
2022-10-25T08:23:46.330Z,19.20
2022-10-25T08:26:14.625Z,42.57
2022-10-25T08:28:42.677Z,13.37
2022-10-25T08:31:10.914Z,22.23
2022-10-25T08:33:39.458Z,12.50
2022-10-25T08:36:08.221Z,12.10
2022-10-25T08:38:36.269Z,16.43
2022-10-25T08:41:12.032Z,12.63
2022-10-25T08:44:20.045Z,11.50
2022-10-25T08:46:55.874Z,12.97
2022-10-25T08:49:29.339Z,10.40
2022-10-25T08:52:00.568Z,11.33
2022-10-25T08:54:30.980Z,16.67
2022-10-25T08:57:16.831Z,18.17
2022-10-25T08:59:49.767Z,9.10
2022-10-25T09:02:24.854Z,10.70
2022-10-25T09:04:53.172Z,12.10
2022-10-25T09:07:46.811Z,11.27
2022-10-25T09:10:26.586Z,11.73
2022-10-25T09:13:08.469Z,9.53
2022-10-25T09:15:52.472Z,15.70
2022-10-25T09:18:27.068Z,10.60
2022-10-25T09:20:55.659Z,9.67
2022-10-25T09:23:30.461Z,11.20
2022-10-25T09:26:05.092Z,11.50
2022-10-25T09:28:52.445Z,12.90
2022-10-25T09:31:24.514Z,13.97
2022-10-25T09:34:04.053Z,13.73
2022-10-25T09:36:39.279Z,11.93
2022-10-25T09:39:18.277Z,10.00
2022-10-25T09:41:51.001Z,15.07
2022-10-25T09:44:32.103Z,12.67
2022-10-25T09:47:05.785Z,10.10
2022-10-25T09:49:42.029Z,21.30
2022-10-25T09:52:19.022Z,11.20
2022-10-25T09:54:52.641Z,16.53
2022-10-25T09:57:20.903Z,10.50
2022-10-25T09:59:52.867Z,9.60
2022-10-25T10:02:25.629Z,12.37
2022-10-25T10:04:55.094Z,9.40
2022-10-25T10:07:29.318Z,9.80
2022-10-25T10:10:01.499Z,16.60
2022-10-25T10:12:36.088Z,13.40
2022-10-25T10:15:14.513Z,23.43
2022-10-25T10:17:42.766Z,15.67
2022-10-25T10:20:15.782Z,17.70
2022-10-25T10:22:52.130Z,32.23
2022-10-25T10:25:23.809Z,25.80
2022-10-25T10:27:54.591Z,24.37
2022-10-25T10:30:28.892Z,20.47
2022-10-25T10:33:00.647Z,25.30
2022-10-25T10:35:34.604Z,22.47
2022-10-25T10:38:21.833Z,16.33
2022-10-25T10:40:51.715Z,12.93
2022-10-25T10:43:31.866Z,12.93
2022-10-25T10:46:06.011Z,11.90
2022-10-25T10:48:42.010Z,10.20
2022-10-25T10:51:38.851Z,16.30
2022-10-25T10:54:23.642Z,13.37
2022-10-25T10:57:00.892Z,13.23
2022-10-25T10:59:41.031Z,13.00
2022-10-25T11:02:36.867Z,14.00
2022-10-25T11:05:20.619Z,14.67
2022-10-25T11:07:56.884Z,11.93
2022-10-25T11:10:28.750Z,11.53
2022-10-25T11:13:11.563Z,12.00
2022-10-25T11:16:04.267Z,16.40
2022-10-25T11:18:47.461Z,14.23
2022-10-25T11:21:29.889Z,14.73
2022-10-25T11:24:09.536Z,11.97
2022-10-25T11:26:52.180Z,11.77
2022-10-25T11:29:33.003Z,11.30
2022-10-25T11:32:11.960Z,19.03
2022-10-25T11:34:50.300Z,14.97
2022-10-25T11:37:22.549Z,15.53
2022-10-25T11:40:04.109Z,14.40
2022-10-25T11:42:57.476Z,10.83
2022-10-25T11:45:36.648Z,11.87
2022-10-25T11:48:42.606Z,15.37
2022-10-25T11:51:25.327Z,15.13
2022-10-25T11:54:20.585Z,15.97
2022-10-25T11:57:01.515Z,20.37
2022-10-25T11:59:44.806Z,12.67
2022-10-25T12:02:34.897Z,13.87
2022-10-25T12:05:18.126Z,12.07
2022-10-25T12:07:48.920Z,23.03
2022-10-25T12:10:29.327Z,15.63
2022-10-25T12:13:02.591Z,17.17
2022-10-25T12:15:38.104Z,16.60
2022-10-25T12:18:07.863Z,17.43
2022-10-25T12:20:38.011Z,15.23
2022-10-25T12:23:10.804Z,16.40
2022-10-25T12:25:45.823Z,12.83
2022-10-25T12:28:23.720Z,18.53
2022-10-25T12:30:58.228Z,14.23
2022-10-25T12:33:35.908Z,28.33
2022-10-25T12:36:08.530Z,16.57
2022-10-25T12:38:38.768Z,18.87
2022-10-25T12:41:17.013Z,19.67
2022-10-25T12:43:54.287Z,17.33
2022-10-25T12:46:44.191Z,19.63
2022-10-25T12:49:42.883Z,20.53
2022-10-25T12:52:25.456Z,17.90
2022-10-25T12:55:30.708Z,16.27
2022-10-25T12:58:12.928Z,15.33
2022-10-25T13:00:47.746Z,17.00
2022-10-25T13:03:37.779Z,14.00
2022-10-25T13:06:26.643Z,16.10
2022-10-25T13:08:56.830Z,17.67
2022-10-25T13:11:34.962Z,15.60
2022-10-25T13:14:05.587Z,17.20
2022-10-25T13:16:36.410Z,14.90
2022-10-25T13:19:53.450Z,19.00
2022-10-25T13:22:37.495Z,16.27
2022-10-25T13:25:19.651Z,14.37
2022-10-25T13:28:31.535Z,15.43
2022-10-25T13:31:47.065Z,17.93
2022-10-25T13:34:36.689Z,18.00
2022-10-25T13:37:07.042Z,22.47
2022-10-25T13:39:39.904Z,17.10
2022-10-25T13:42:23.385Z,22.20
2022-10-25T13:44:56.867Z,25.13
2022-10-25T13:47:37.072Z,19.43
2022-10-25T13:50:20.147Z,14.50
2022-10-25T13:53:02.643Z,16.47
2022-10-25T13:55:36.729Z,26.70
2022-10-25T13:58:42.089Z,29.27
2022-10-25T14:01:55.838Z,16.33
2022-10-25T14:04:36.240Z,19.43
2022-10-25T14:07:41.729Z,18.80
2022-10-25T14:10:26.869Z,14.47
2022-10-25T14:13:08.390Z,17.13
2022-10-25T14:15:46.825Z,13.73
2022-10-25T14:18:20.668Z,17.80
2022-10-25T14:20:50.536Z,20.30
2022-10-25T14:23:23.236Z,21.03
2022-10-25T14:25:56.781Z,14.53
2022-10-25T14:28:26.882Z,19.07
2022-10-25T14:30:56.835Z,12.80
2022-10-25T14:33:27.716Z,17.20
2022-10-25T14:35:58.975Z,18.23
2022-10-25T14:38:28.723Z,16.97
2022-10-25T14:41:00.158Z,16.90
2022-10-25T14:43:30.938Z,18.20
2022-10-25T14:46:12.656Z,17.60
2022-10-25T14:48:41.776Z,18.17
2022-10-25T14:51:15.015Z,19.13
2022-10-25T14:53:54.929Z,20.03
2022-10-25T14:56:29.035Z,14.07
2022-10-25T14:58:58.029Z,16.30
2022-10-25T15:01:27.018Z,24.63
2022-10-25T15:03:58.400Z,17.83
2022-10-25T15:06:29.522Z,25.47
2022-10-25T15:09:29.135Z,23.33
2022-10-25T15:12:07.983Z,18.50
2022-10-25T15:14:37.008Z,18.43
2022-10-25T15:17:06.557Z,22.30
2022-10-25T15:19:54.723Z,26.30
2022-10-25T15:22:28.405Z,22.47
2022-10-25T15:24:57.819Z,28.53
2022-10-25T15:27:32.942Z,17.33
2022-10-25T15:30:01.046Z,26.73
2022-10-25T15:32:29.192Z,21.20
2022-10-25T15:34:59.934Z,16.70
2022-10-25T15:37:29.777Z,47.33
2022-10-25T15:39:58.715Z,26.17
2022-10-25T15:42:28.577Z,28.27
2022-10-25T15:44:56.655Z,34.03
2022-10-25T15:47:33.734Z,25.03
2022-10-25T15:50:04.591Z,19.77
2022-10-25T15:52:32.755Z,24.30
2022-10-25T15:55:00.898Z,25.30
2022-10-25T15:57:30.791Z,29.07
2022-10-25T16:00:00.279Z,37.03
2022-10-25T16:02:28.738Z,31.77
2022-10-25T16:04:57.066Z,25.90
2022-10-25T16:07:25.407Z,38.27
2022-10-25T16:09:53.538Z,49.83
2022-10-25T16:12:25.944Z,60.97
2022-10-25T16:14:55.712Z,53.50
2022-10-25T16:17:23.798Z,62.23
2022-10-25T16:19:51.933Z,56.93
2022-10-25T16:22:20.125Z,54.00
2022-10-25T16:24:48.382Z,50.30
2022-10-25T16:27:16.662Z,48.70
2022-10-25T16:29:44.780Z,52.27
2022-10-25T16:32:14.343Z,50.50
2022-10-25T16:34:46.103Z,50.70
2022-10-25T16:37:14.402Z,59.07
2022-10-25T16:39:42.603Z,44.43
2022-10-25T16:42:29.320Z,43.67
2022-10-25T16:44:57.888Z,52.57
2022-10-25T16:47:28.083Z,43.20
2022-10-25T16:49:56.346Z,49.87
2022-10-25T16:52:24.584Z,43.80
2022-10-25T16:54:53.044Z,41.70
2022-10-25T16:57:21.242Z,48.13
2022-10-25T16:59:50.689Z,40.97
2022-10-25T17:02:20.532Z,38.67
2022-10-25T17:04:50.484Z,53.20
2022-10-25T17:07:19.269Z,41.30
2022-10-25T17:09:47.338Z,43.93
2022-10-25T17:12:15.449Z,48.17
2022-10-25T17:14:43.628Z,51.83
2022-10-25T17:17:12.049Z,45.53
2022-10-25T17:19:40.143Z,39.67
2022-10-25T17:22:10.189Z,42.70
2022-10-25T17:24:38.437Z,31.00
2022-10-25T17:27:08.243Z,42.43
2022-10-25T17:29:36.324Z,39.37
2022-10-25T17:32:04.467Z,28.77
2022-10-25T17:34:32.695Z,34.53
2022-10-25T17:37:02.331Z,36.37
2022-10-25T17:39:32.041Z,22.90
2022-10-25T17:42:00.159Z,32.93
2022-10-25T17:44:28.471Z,26.77
2022-10-25T17:46:58.529Z,27.63
2022-10-25T17:49:29.217Z,29.13
2022-10-25T17:51:57.346Z,39.73
2022-10-25T17:54:25.400Z,41.93
2022-10-25T17:56:58.562Z,28.73
2022-10-25T17:59:27.829Z,41.47
2022-10-25T18:01:56.163Z,35.80
2022-10-25T18:04:25.103Z,36.97
2022-10-25T18:06:53.230Z,49.10
2022-10-25T18:09:22.935Z,24.90
2022-10-25T18:11:51.082Z,25.97
2022-10-25T18:14:20.816Z,22.40
2022-10-25T18:16:48.899Z,23.03
2022-10-25T18:19:17.222Z,28.00
2022-10-25T18:21:45.296Z,24.37
2022-10-25T18:24:14.845Z,23.23
2022-10-25T18:26:43.007Z,26.03
2022-10-25T18:29:11.156Z,27.40
2022-10-25T18:31:40.647Z,19.33
2022-10-25T18:34:08.737Z,29.80
2022-10-25T18:36:36.917Z,28.10
2022-10-25T18:39:05.507Z,25.10
2022-10-25T18:41:35.559Z,27.93
2022-10-25T18:44:03.922Z,19.97
2022-10-25T18:46:32.905Z,32.90
2022-10-25T18:49:02.637Z,29.43
2022-10-25T18:51:31.928Z,28.77
2022-10-25T18:54:01.893Z,18.40
2022-10-25T18:56:31.661Z,21.70
2022-10-25T18:59:00.311Z,25.47
2022-10-25T19:01:32.772Z,27.43
2022-10-25T19:04:05.374Z,23.70
2022-10-25T19:06:34.475Z,23.07
2022-10-25T19:09:03.998Z,23.93
2022-10-25T19:11:33.458Z,19.70
2022-10-25T19:14:03.243Z,25.77
2022-10-25T19:16:31.512Z,26.93
2022-10-25T19:19:04.647Z,27.30
2022-10-25T19:21:32.922Z,30.70
2022-10-25T19:24:01.152Z,27.07
2022-10-25T19:26:29.357Z,32.87
2022-10-25T19:28:58.765Z,23.87
2022-10-25T19:31:28.028Z,31.63
2022-10-25T19:34:00.681Z,18.20
2022-10-25T19:36:30.968Z,28.67
2022-10-25T19:38:59.498Z,21.10
2022-10-25T19:41:27.716Z,22.33
2022-10-25T19:43:57.318Z,22.53
2022-10-25T19:46:26.265Z,25.33
2022-10-25T19:48:56.313Z,16.60
2022-10-25T19:51:24.811Z,10.47
2022-10-25T19:53:54.315Z,7.87
2022-10-25T19:56:23.851Z,18.27
2022-10-25T19:58:52.304Z,14.63
2022-10-25T20:01:23.367Z,17.70
2022-10-25T20:03:54.661Z,18.57
2022-10-25T20:06:25.090Z,11.83
2022-10-25T20:08:56.158Z,11.73
2022-10-25T20:11:25.677Z,16.87
2022-10-25T20:13:58.347Z,20.37
2022-10-25T20:16:27.578Z,13.40
2022-10-25T20:18:55.869Z,16.23
2022-10-25T20:21:26.049Z,21.13
2022-10-25T20:23:57.839Z,17.47
2022-10-25T20:26:28.245Z,19.53
2022-10-25T20:28:58.416Z,7.77
2022-10-25T20:31:28.052Z,16.63
2022-10-25T20:33:56.505Z,18.93
2022-10-25T20:36:25.206Z,14.63
2022-10-25T20:38:53.509Z,19.30
2022-10-25T20:41:25.570Z,18.33
2022-10-25T20:43:55.693Z,16.43
2022-10-25T20:46:25.469Z,14.30
2022-10-25T20:48:53.892Z,24.33
2022-10-25T20:51:22.639Z,17.70
2022-10-25T20:53:50.911Z,20.73
2022-10-25T20:56:20.569Z,17.80
2022-10-25T20:58:50.802Z,18.77
2022-10-25T21:01:19.290Z,9.60
2022-10-25T21:03:47.480Z,15.87
2022-10-25T21:06:15.579Z,11.37
2022-10-25T21:08:43.729Z,17.10
2022-10-25T21:11:13.785Z,15.60
2022-10-25T21:13:42.523Z,13.03
2022-10-25T21:16:14.062Z,11.93
2022-10-25T21:18:44.084Z,11.13
2022-10-25T21:21:19.089Z,12.17
2022-10-25T21:23:48.218Z,12.93
2022-10-25T21:26:16.654Z,10.20
2022-10-25T21:28:44.847Z,10.07
2022-10-25T21:31:17.135Z,8.10
2022-10-25T21:33:49.967Z,12.47
2022-10-25T21:36:20.942Z,14.97
2022-10-25T21:38:49.243Z,13.40
2022-10-25T21:41:20.684Z,10.47
2022-10-25T21:43:50.707Z,13.83
2022-10-25T21:46:21.729Z,17.87
2022-10-25T21:48:51.493Z,6.53
2022-10-25T21:51:20.349Z,17.03
2022-10-25T21:53:49.120Z,12.20
2022-10-25T21:56:19.197Z,16.77
2022-10-25T21:58:49.041Z,24.43
2022-10-25T22:01:20.518Z,15.77
2022-10-25T22:03:48.884Z,11.53
2022-10-25T22:06:19.179Z,12.93
2022-10-25T22:08:48.511Z,18.13
2022-10-25T22:11:18.701Z,14.53
2022-10-25T22:13:47.944Z,17.53
2022-10-25T22:16:18.146Z,24.67
2022-10-25T22:18:53.788Z,18.40
2022-10-25T22:21:22.681Z,13.90
2022-10-25T22:23:51.753Z,12.80
2022-10-25T22:26:21.778Z,17.53
2022-10-25T22:28:53.440Z,11.90
2022-10-25T22:31:22.244Z,20.13
2022-10-25T22:33:56.040Z,12.83
2022-10-25T22:36:26.058Z,14.60
2022-10-25T22:38:54.440Z,17.13
2022-10-25T22:41:24.781Z,14.30
2022-10-25T22:43:53.303Z,13.70
2022-10-25T22:46:25.251Z,9.07
2022-10-25T22:48:56.800Z,19.07
2022-10-25T22:51:26.501Z,20.37
2022-10-25T22:53:55.158Z,14.47
2022-10-25T22:56:24.510Z,16.47
2022-10-25T22:58:54.237Z,16.40
2022-10-25T23:01:24.833Z,14.33
2022-10-25T23:03:56.714Z,14.87
2022-10-25T23:06:27.261Z,12.77
2022-10-25T23:08:56.622Z,13.03
2022-10-25T23:11:26.996Z,17.03
2022-10-25T23:13:55.348Z,12.23
2022-10-25T23:16:23.730Z,16.93
2022-10-25T23:18:52.244Z,12.63
2022-10-25T23:21:23.779Z,15.47
2022-10-25T23:23:53.363Z,8.10
2022-10-25T23:26:26.168Z,16.57
2022-10-25T23:28:55.311Z,12.87
2022-10-25T23:31:24.363Z,13.40
2022-10-25T23:33:53.728Z,9.73
2022-10-25T23:36:25.460Z,9.33
2022-10-25T23:38:54.884Z,8.53
2022-10-25T23:41:24.062Z,8.67
2022-10-25T23:43:52.382Z,7.37
2022-10-25T23:46:20.815Z,6.10
2022-10-25T23:48:49.268Z,9.83
2022-10-25T23:51:19.379Z,10.33
2022-10-25T23:53:48.958Z,13.20
2022-10-25T23:56:17.432Z,8.40
2022-10-25T23:58:45.569Z,14.73
